createdAt,value
2023-02-26T00:00:34.976Z,4.68
2023-02-26T00:02:36.811Z,4.57
2023-02-26T00:04:38.500Z,4.45
2023-02-26T00:06:53.823Z,5.13
2023-02-26T00:08:59.847Z,4.50
2023-02-26T00:11:04.304Z,4.45
2023-02-26T00:13:06.356Z,4.18
2023-02-26T00:15:08.991Z,4.40
2023-02-26T00:17:17.894Z,4.25
2023-02-26T00:19:20.279Z,4.38
2023-02-26T00:21:23.322Z,3.90
2023-02-26T00:23:25.154Z,4.10
2023-02-26T00:25:26.813Z,4.25
2023-02-26T00:27:28.370Z,3.85
2023-02-26T00:29:30.248Z,3.88
2023-02-26T00:31:32.440Z,4.90
2023-02-26T00:33:34.503Z,4.20
2023-02-26T00:35:36.445Z,4.00
2023-02-26T00:37:59.028Z,3.10
2023-02-26T00:40:15.210Z,3.78
2023-02-26T00:42:17.007Z,4.20
2023-02-26T00:44:18.933Z,3.92
2023-02-26T00:46:43.066Z,3.50
2023-02-26T00:49:12.404Z,4.35
2023-02-26T00:51:52.523Z,4.30
2023-02-26T00:54:09.067Z,3.92
2023-02-26T00:56:10.640Z,4.15
2023-02-26T00:58:12.240Z,3.25
2023-02-26T01:00:14.486Z,4.05
2023-02-26T01:02:16.188Z,3.45
2023-02-26T01:04:20.846Z,3.75
2023-02-26T01:06:26.660Z,3.28
2023-02-26T01:08:33.224Z,4.38
2023-02-26T01:10:35.178Z,3.85
2023-02-26T01:12:37.389Z,4.07
2023-02-26T01:14:39.952Z,3.88
2023-02-26T01:16:52.192Z,3.80
2023-02-26T01:19:13.594Z,3.47
2023-02-26T01:21:19.476Z,4.53
2023-02-26T01:23:31.515Z,3.88
2023-02-26T01:25:45.568Z,4.07
2023-02-26T01:27:47.410Z,4.00
2023-02-26T01:29:49.202Z,4.97
2023-02-26T01:32:08.139Z,4.07
2023-02-26T01:34:17.839Z,4.85
2023-02-26T01:36:28.654Z,3.85
2023-02-26T01:38:35.118Z,4.32
2023-02-26T01:40:58.481Z,3.90
2023-02-26T01:43:07.648Z,4.65
2023-02-26T01:45:16.706Z,3.83
2023-02-26T01:47:46.743Z,3.88
2023-02-26T01:49:48.759Z,4.75
2023-02-26T01:51:51.720Z,3.65
2023-02-26T01:53:53.323Z,4.10
2023-02-26T01:56:01.370Z,3.83
2023-02-26T01:58:03.699Z,3.85
2023-02-26T02:00:06.345Z,4.30
2023-02-26T02:02:10.267Z,4.35
2023-02-26T02:04:14.671Z,3.83
2023-02-26T02:06:27.232Z,3.78
2023-02-26T02:08:29.368Z,3.70
2023-02-26T02:10:31.157Z,3.47
2023-02-26T02:12:45.800Z,3.85
2023-02-26T02:14:50.096Z,3.58
2023-02-26T02:17:09.593Z,3.38
2023-02-26T02:19:33.040Z,3.33
2023-02-26T02:22:03.225Z,2.97
2023-02-26T02:24:11.825Z,3.72
2023-02-26T02:26:32.223Z,3.63
2023-02-26T02:28:45.601Z,3.72
2023-02-26T02:31:11.739Z,4.03
2023-02-26T02:33:16.078Z,3.53
2023-02-26T02:35:17.586Z,3.42
2023-02-26T02:37:29.617Z,4.03
2023-02-26T02:39:32.726Z,3.67
2023-02-26T02:41:46.306Z,3.53
2023-02-26T02:43:49.622Z,3.45
2023-02-26T02:45:59.211Z,3.70
2023-02-26T02:48:06.634Z,3.60
2023-02-26T02:50:13.787Z,3.40
2023-02-26T02:52:31.862Z,3.35
2023-02-26T02:54:46.677Z,3.72
2023-02-26T02:56:56.493Z,3.97
2023-02-26T02:59:05.978Z,4.53
2023-02-26T03:01:11.347Z,3.40
2023-02-26T03:03:21.074Z,3.13
2023-02-26T03:05:22.658Z,3.55
2023-02-26T03:07:24.340Z,3.70
2023-02-26T03:09:26.040Z,3.20
2023-02-26T03:11:27.743Z,3.80
2023-02-26T03:13:29.309Z,3.33
2023-02-26T03:15:35.920Z,3.42
2023-02-26T03:18:10.243Z,3.40
2023-02-26T03:20:28.189Z,3.08
2023-02-26T03:22:43.713Z,3.30
2023-02-26T03:24:56.150Z,3.35
2023-02-26T03:27:05.549Z,3.65
2023-02-26T03:29:10.233Z,3.58
2023-02-26T03:31:36.735Z,3.20
2023-02-26T03:34:04.926Z,3.63
2023-02-26T03:36:19.045Z,3.35
2023-02-26T03:40:54.615Z,3.30
2023-02-26T03:43:07.498Z,3.00
2023-02-26T03:45:15.956Z,3.55
2023-02-26T03:47:17.730Z,3.42
2023-02-26T03:49:24.474Z,3.33
2023-02-26T03:51:27.010Z,4.20
2023-02-26T03:53:32.249Z,3.15
2023-02-26T03:55:38.549Z,3.33
2023-02-26T03:57:40.225Z,3.30
2023-02-26T03:59:42.156Z,4.00
2023-02-26T04:02:05.885Z,3.63
2023-02-26T04:04:27.376Z,3.67
2023-02-26T04:06:29.631Z,3.45
2023-02-26T04:08:31.406Z,4.10
2023-02-26T04:10:45.216Z,3.70
2023-02-26T04:12:46.821Z,3.58
2023-02-26T04:14:48.418Z,3.22
2023-02-26T04:16:50.070Z,3.50
2023-02-26T04:18:51.708Z,4.63
2023-02-26T04:20:53.289Z,3.60
2023-02-26T04:22:54.909Z,3.28
2023-02-26T04:24:56.487Z,4.20
2023-02-26T04:26:58.111Z,3.67
2023-02-26T04:28:59.689Z,3.38
2023-02-26T04:31:01.362Z,3.22
2023-02-26T04:33:03.190Z,4.05
2023-02-26T04:35:05.079Z,3.72
2023-02-26T04:37:06.651Z,3.42
2023-02-26T04:39:10.788Z,3.47
2023-02-26T04:41:12.434Z,3.67
2023-02-26T04:43:14.350Z,4.05
2023-02-26T04:45:15.997Z,3.35
2023-02-26T04:47:17.585Z,3.60
2023-02-26T04:49:19.164Z,3.10
2023-02-26T04:51:21.175Z,5.82
2023-02-26T04:53:22.783Z,3.55
2023-02-26T04:55:24.407Z,4.03
2023-02-26T04:57:26.063Z,3.67
2023-02-26T04:59:27.656Z,3.47
2023-02-26T05:01:29.370Z,3.75
2023-02-26T05:03:31.026Z,3.30
2023-02-26T05:05:32.905Z,3.20
2023-02-26T05:07:34.513Z,3.55
2023-02-26T05:09:36.129Z,3.58
2023-02-26T05:11:37.824Z,3.50
2023-02-26T05:13:39.664Z,3.20
2023-02-26T05:15:41.356Z,3.63
2023-02-26T05:17:43.127Z,3.42
2023-02-26T05:19:44.711Z,3.63
2023-02-26T05:21:46.359Z,4.55
2023-02-26T05:23:48.093Z,3.90
2023-02-26T05:25:49.694Z,3.97
2023-02-26T05:27:51.363Z,3.38
2023-02-26T05:29:52.981Z,4.57
2023-02-26T05:31:54.756Z,3.88
2023-02-26T05:33:56.413Z,3.75
2023-02-26T05:35:58.130Z,4.10
2023-02-26T05:38:00.133Z,3.85
2023-02-26T05:40:01.688Z,3.25
2023-02-26T05:42:03.348Z,3.85
2023-02-26T05:44:05.002Z,3.55
2023-02-26T05:46:06.728Z,3.80
2023-02-26T05:48:08.373Z,3.70
2023-02-26T05:50:10.723Z,4.13
2023-02-26T05:52:12.325Z,3.50
2023-02-26T05:54:13.877Z,3.40
2023-02-26T05:56:17.747Z,3.72
2023-02-26T05:58:19.587Z,3.58
2023-02-26T06:00:21.421Z,3.20
2023-02-26T06:02:23.126Z,3.38
2023-02-26T06:04:24.659Z,4.18
2023-02-26T06:06:27.187Z,4.75
2023-02-26T06:08:28.910Z,3.20
2023-02-26T06:10:30.469Z,3.50
2023-02-26T06:12:32.128Z,4.10
2023-02-26T06:14:34.438Z,3.50
2023-02-26T06:16:36.182Z,4.28
2023-02-26T06:18:37.790Z,3.08
2023-02-26T06:20:39.363Z,4.30
2023-02-26T06:22:40.992Z,3.28
2023-02-26T06:24:42.642Z,3.38
2023-02-26T06:26:44.507Z,3.90
2023-02-26T06:28:46.156Z,3.85
2023-02-26T06:30:47.890Z,4.30
2023-02-26T06:32:50.024Z,3.80
2023-02-26T06:34:51.725Z,3.80
2023-02-26T06:36:53.314Z,3.58
2023-02-26T06:38:55.011Z,3.40
2023-02-26T06:40:56.902Z,3.72
2023-02-26T06:42:58.617Z,3.60
2023-02-26T06:45:00.227Z,4.00
2023-02-26T06:47:01.876Z,3.13
2023-02-26T06:49:03.719Z,3.33
2023-02-26T06:51:07.394Z,4.43
2023-02-26T06:53:09.313Z,4.13
2023-02-26T06:55:11.336Z,4.22
2023-02-26T06:57:12.922Z,3.47
2023-02-26T06:59:15.462Z,4.30
2023-02-26T07:01:17.438Z,4.25
2023-02-26T07:03:19.119Z,4.00
2023-02-26T07:05:21.254Z,3.45
2023-02-26T07:07:23.249Z,3.40
2023-02-26T07:09:24.998Z,4.75
2023-02-26T07:11:26.681Z,3.70
2023-02-26T07:13:28.574Z,3.78
2023-02-26T07:15:30.426Z,3.60
2023-02-26T07:17:32.405Z,3.30
2023-02-26T07:19:33.966Z,3.95
2023-02-26T07:21:35.596Z,3.20
2023-02-26T07:23:37.230Z,3.63
2023-02-26T07:25:38.803Z,3.40
2023-02-26T07:27:42.206Z,3.13
2023-02-26T07:29:45.215Z,3.63
2023-02-26T07:31:46.863Z,3.17
2023-02-26T07:33:48.633Z,3.08
2023-02-26T07:35:50.209Z,3.97
2023-02-26T07:37:52.341Z,3.97
2023-02-26T07:39:53.940Z,3.50
2023-02-26T07:41:55.620Z,3.97
2023-02-26T07:43:57.184Z,3.38
2023-02-26T07:45:58.888Z,3.58
2023-02-26T07:48:00.677Z,3.70
2023-02-26T07:50:02.356Z,3.25
2023-02-26T07:52:04.267Z,4.07
2023-02-26T07:54:05.888Z,4.25
2023-02-26T07:56:07.617Z,4.00
2023-02-26T07:58:09.316Z,4.05
2023-02-26T08:00:11.510Z,3.88
2023-02-26T08:02:13.740Z,4.03
2023-02-26T08:04:15.677Z,3.63
2023-02-26T08:06:17.336Z,3.78
2023-02-26T08:08:18.944Z,3.83
2023-02-26T08:10:20.717Z,3.63
2023-02-26T08:12:22.301Z,4.15
2023-02-26T08:14:23.912Z,4.07
2023-02-26T08:16:25.924Z,3.17
2023-02-26T08:18:27.751Z,4.15
2023-02-26T08:20:29.365Z,3.03
2023-02-26T08:22:31.094Z,4.28
2023-02-26T08:24:32.736Z,4.28
2023-02-26T08:26:37.792Z,3.58
2023-02-26T08:28:39.812Z,4.43
2023-02-26T08:30:41.442Z,3.55
2023-02-26T08:32:43.195Z,3.15
2023-02-26T08:34:44.920Z,2.78
2023-02-26T08:36:46.586Z,4.07
2023-02-26T08:38:48.376Z,3.67
2023-02-26T08:40:50.375Z,3.95
2023-02-26T08:42:52.608Z,4.40
2023-02-26T08:44:54.314Z,4.13
2023-02-26T08:46:56.556Z,3.97
2023-02-26T08:48:58.271Z,4.13
2023-02-26T08:50:59.858Z,3.10
2023-02-26T08:53:01.440Z,4.18
2023-02-26T08:55:04.252Z,3.85
2023-02-26T08:57:05.886Z,4.43
2023-02-26T08:59:10.122Z,4.40
2023-02-26T09:01:11.765Z,3.88
2023-02-26T09:03:13.920Z,4.35
2023-02-26T09:05:15.974Z,3.72
2023-02-26T09:07:17.590Z,4.07
2023-02-26T09:09:19.525Z,3.67
2023-02-26T09:11:21.109Z,3.78
2023-02-26T09:13:22.877Z,4.82
2023-02-26T09:15:24.567Z,4.57
2023-02-26T09:17:26.238Z,3.50
2023-02-26T09:19:27.887Z,3.70
2023-02-26T09:21:30.177Z,3.85
2023-02-26T09:23:31.782Z,4.10
2023-02-26T09:25:33.308Z,4.22
2023-02-26T09:27:35.771Z,4.63
2023-02-26T09:29:38.058Z,3.55
2023-02-26T09:31:39.900Z,4.90
2023-02-26T09:33:41.760Z,4.95
2023-02-26T09:35:43.392Z,5.10
2023-02-26T09:37:45.044Z,5.80
2023-02-26T09:39:46.692Z,5.82
2023-02-26T09:41:51.748Z,7.43
2023-02-26T09:44:15.109Z,7.60
2023-02-26T09:46:38.198Z,8.45
2023-02-26T09:48:40.463Z,5.72
2023-02-26T09:50:53.441Z,6.88
2023-02-26T09:53:16.855Z,7.57
2023-02-26T09:55:28.087Z,7.25
2023-02-26T09:57:33.413Z,8.00
2023-02-26T09:59:35.067Z,6.70
2023-02-26T10:02:01.976Z,6.53
2023-02-26T10:04:20.631Z,6.43
2023-02-26T10:06:31.606Z,5.13
2023-02-26T10:08:38.854Z,5.00
2023-02-26T10:11:24.860Z,4.50
2023-02-26T10:13:56.204Z,4.75
2023-02-26T10:16:08.613Z,4.93
2023-02-26T10:18:11.973Z,5.55
2023-02-26T10:20:55.613Z,4.88
2023-02-26T10:23:15.279Z,4.80
2023-02-26T10:25:21.144Z,4.85
2023-02-26T10:27:44.915Z,4.50
2023-02-26T10:30:03.293Z,3.75
2023-02-26T10:32:28.911Z,4.72
2023-02-26T10:34:38.228Z,4.53
2023-02-26T10:36:59.006Z,4.47
2023-02-26T10:39:16.357Z,3.83
2023-02-26T10:41:22.115Z,3.65
2023-02-26T10:43:37.711Z,4.70
2023-02-26T10:46:09.746Z,4.05
2023-02-26T10:48:26.396Z,4.45
2023-02-26T10:50:28.356Z,3.92
2023-02-26T10:52:33.416Z,4.93
2023-02-26T10:54:37.590Z,4.35
2023-02-26T10:56:39.125Z,4.43
2023-02-26T10:58:40.772Z,4.55
2023-02-26T11:00:44.907Z,4.43
2023-02-26T11:02:48.674Z,4.60
2023-02-26T11:04:59.221Z,5.05
2023-02-26T11:07:07.928Z,4.50
2023-02-26T11:09:38.031Z,4.15
2023-02-26T11:11:41.398Z,4.47
2023-02-26T11:13:42.973Z,4.35
2023-02-26T11:15:48.522Z,4.68
2023-02-26T11:17:54.634Z,3.88
2023-02-26T11:19:58.232Z,4.10
2023-02-26T11:22:00.413Z,4.68
2023-02-26T11:24:05.184Z,5.13
2023-02-26T11:26:08.606Z,4.60
2023-02-26T11:28:23.419Z,4.63
2023-02-26T11:30:27.125Z,4.55
2023-02-26T11:34:36.616Z,5.13
2023-02-26T11:36:41.014Z,4.70
2023-02-26T11:38:46.603Z,4.43
2023-02-26T11:40:52.206Z,3.58
2023-02-26T11:42:59.732Z,4.25
2023-02-26T11:45:01.361Z,4.60
2023-02-26T11:47:15.319Z,4.65
2023-02-26T11:49:18.967Z,4.13
2023-02-26T11:51:24.342Z,4.80
2023-02-26T11:53:32.438Z,3.88
2023-02-26T11:55:40.025Z,4.95
2023-02-26T11:57:42.958Z,4.00
2023-02-26T11:59:49.089Z,4.22
2023-02-26T12:01:51.947Z,4.35
2023-02-26T12:03:53.835Z,4.33
2023-02-26T12:05:57.201Z,3.97
2023-02-26T12:07:58.975Z,4.60
2023-02-26T12:10:00.606Z,3.60
2023-02-26T12:12:10.978Z,4.65
2023-02-26T12:14:31.984Z,4.13
2023-02-26T12:16:45.843Z,4.10
2023-02-26T12:18:51.775Z,4.40
2023-02-26T12:21:10.451Z,4.15
2023-02-26T12:23:14.761Z,3.97
2023-02-26T12:25:32.900Z,5.47
2023-02-26T12:28:00.473Z,6.07
2023-02-26T12:30:31.457Z,5.10
2023-02-26T12:32:57.903Z,5.05
2023-02-26T12:35:05.347Z,4.20
2023-02-26T12:37:32.516Z,4.55
2023-02-26T12:39:45.847Z,4.28
2023-02-26T12:42:10.587Z,4.30
2023-02-26T12:44:44.439Z,4.68
2023-02-26T12:46:51.960Z,4.28
2023-02-26T12:49:17.485Z,5.07
2023-02-26T12:51:19.037Z,3.80
2023-02-26T12:53:29.695Z,4.63
2023-02-26T12:56:25.426Z,4.38
2023-02-26T12:59:01.051Z,4.15
2023-02-26T13:01:33.772Z,5.30
2023-02-26T13:03:59.953Z,4.13
2023-02-26T13:06:38.427Z,4.60
2023-02-26T13:08:48.836Z,4.78
2023-02-26T13:10:57.130Z,3.92
2023-02-26T13:13:30.546Z,4.60
2023-02-26T13:16:02.655Z,4.65
2023-02-26T13:18:13.672Z,5.38
2023-02-26T13:20:24.332Z,4.85
2023-02-26T13:22:32.596Z,4.60
2023-02-26T13:24:44.600Z,4.60
2023-02-26T13:26:47.632Z,4.32
2023-02-26T13:29:15.583Z,4.65
2023-02-26T13:31:31.340Z,4.40
2023-02-26T13:33:34.828Z,4.50
2023-02-26T13:35:42.046Z,4.13
2023-02-26T13:37:48.274Z,4.97
2023-02-26T13:40:02.225Z,3.97
2023-02-26T13:42:40.917Z,3.80
2023-02-26T13:45:16.726Z,4.20
2023-02-26T13:47:42.986Z,4.40
2023-02-26T13:50:19.626Z,3.97
2023-02-26T13:52:29.715Z,5.30
2023-02-26T13:54:43.206Z,4.45
2023-02-26T13:56:50.149Z,4.22
2023-02-26T13:59:04.262Z,4.40
2023-02-26T14:05:33.162Z,3.67
2023-02-26T14:08:08.543Z,4.38
2023-02-26T14:10:25.377Z,4.50
2023-02-26T14:12:38.211Z,4.22
2023-02-26T14:14:40.124Z,3.92
2023-02-26T14:16:44.944Z,4.45
2023-02-26T14:18:46.493Z,5.28
2023-02-26T14:20:48.037Z,4.93
2023-02-26T14:23:14.480Z,4.63
2023-02-26T14:25:18.972Z,5.45
2023-02-26T14:27:20.531Z,5.15
2023-02-26T14:29:26.365Z,5.05
2023-02-26T14:31:48.454Z,5.53
2023-02-26T14:34:14.191Z,3.90
2023-02-26T14:36:36.270Z,4.05
2023-02-26T14:38:38.901Z,4.95
2023-02-26T14:40:46.652Z,5.00
2023-02-26T14:42:59.837Z,5.18
2023-02-26T14:45:23.515Z,5.03
2023-02-26T14:47:27.673Z,4.88
2023-02-26T14:49:40.567Z,5.88
2023-02-26T14:51:51.851Z,6.15
2023-02-26T14:54:23.799Z,5.43
2023-02-26T14:56:28.396Z,5.88
2023-02-26T14:58:35.134Z,4.90
2023-02-26T15:00:39.879Z,5.28
2023-02-26T15:02:56.839Z,5.15
2023-02-26T15:04:58.401Z,6.88
2023-02-26T15:07:25.071Z,5.70
2023-02-26T15:09:51.275Z,5.13
2023-02-26T15:11:55.589Z,5.30
2023-02-26T15:14:06.001Z,6.18
2023-02-26T15:16:58.354Z,6.45
2023-02-26T15:19:14.550Z,5.40
2023-02-26T15:21:19.589Z,5.70
2023-02-26T15:23:43.310Z,5.38
2023-02-26T15:25:47.537Z,5.45
2023-02-26T15:27:49.329Z,6.55
2023-02-26T15:29:53.140Z,6.47
2023-02-26T15:32:01.414Z,5.70
2023-02-26T15:34:03.740Z,6.05
2023-02-26T15:36:08.855Z,5.72
2023-02-26T15:38:10.544Z,5.78
2023-02-26T15:40:14.906Z,6.07
2023-02-26T15:42:17.568Z,5.60
2023-02-26T15:44:26.029Z,7.03
2023-02-26T15:46:31.616Z,5.38
2023-02-26T15:48:38.084Z,5.78
2023-02-26T15:50:43.069Z,6.30
2023-02-26T15:52:45.135Z,5.40
2023-02-26T15:55:14.028Z,6.95
2023-02-26T15:57:16.366Z,6.25
2023-02-26T15:59:21.267Z,5.80
2023-02-26T16:01:25.304Z,7.07
2023-02-26T16:03:37.937Z,6.97
2023-02-26T16:05:41.440Z,8.18
2023-02-26T16:07:43.128Z,8.23
2023-02-26T16:09:47.155Z,8.77
2023-02-26T16:11:49.493Z,8.15
2023-02-26T16:13:52.320Z,8.30
2023-02-26T16:15:54.011Z,8.10
2023-02-26T16:17:56.397Z,9.02
2023-02-26T16:19:59.706Z,7.97
2023-02-26T16:22:07.199Z,8.48
2023-02-26T16:24:15.448Z,8.50
2023-02-26T16:26:22.416Z,7.63
2023-02-26T16:28:35.288Z,7.43
2023-02-26T16:30:38.827Z,7.30
2023-02-26T16:32:40.678Z,7.07
2023-02-26T16:35:12.469Z,7.05
2023-02-26T16:37:29.043Z,7.00
2023-02-26T16:39:31.622Z,6.95
2023-02-26T16:41:39.331Z,5.80
2023-02-26T16:43:47.777Z,8.20
2023-02-26T16:45:57.114Z,6.20
2023-02-26T16:47:59.620Z,6.95
2023-02-26T16:50:02.116Z,6.60
2023-02-26T16:52:04.297Z,7.18
2023-02-26T16:54:19.506Z,7.45
2023-02-26T16:56:25.510Z,9.20
2023-02-26T16:58:27.382Z,9.40
2023-02-26T17:00:31.225Z,12.00
2023-02-26T17:02:35.456Z,8.15
2023-02-26T17:04:37.472Z,8.02
2023-02-26T17:06:40.038Z,8.63
2023-02-26T17:09:12.589Z,8.60
2023-02-26T17:11:30.480Z,8.15
2023-02-26T17:13:33.557Z,7.72
2023-02-26T17:15:37.070Z,8.40
2023-02-26T17:17:38.607Z,8.77
2023-02-26T17:19:40.271Z,7.82
2023-02-26T17:21:44.912Z,8.93
2023-02-26T17:23:46.700Z,9.57
2023-02-26T17:25:50.882Z,10.05
2023-02-26T17:27:53.878Z,10.80
2023-02-26T17:29:55.540Z,7.57
2023-02-26T17:31:57.293Z,7.90
2023-02-26T17:33:59.044Z,8.23
2023-02-26T17:36:02.425Z,8.48
2023-02-26T17:38:04.550Z,9.13
2023-02-26T17:40:18.605Z,8.50
2023-02-26T17:42:21.510Z,8.00
2023-02-26T17:44:24.506Z,10.10
2023-02-26T17:46:27.126Z,9.70
2023-02-26T17:48:28.786Z,7.78
2023-02-26T17:50:39.362Z,7.47
2023-02-26T17:52:40.918Z,7.68
2023-02-26T17:54:42.782Z,8.48
2023-02-26T17:56:45.092Z,8.27
2023-02-26T17:58:46.709Z,8.85
2023-02-26T18:00:53.144Z,9.10
2023-02-26T18:02:54.893Z,8.52
2023-02-26T18:04:56.512Z,10.55
2023-02-26T18:06:58.533Z,9.25
2023-02-26T18:09:00.677Z,8.65
2023-02-26T18:11:02.618Z,8.73
2023-02-26T18:13:04.307Z,8.55
2023-02-26T18:15:06.434Z,8.60
2023-02-26T18:17:15.404Z,8.23
2023-02-26T18:19:17.055Z,7.43
2023-02-26T18:21:20.430Z,8.23
2023-02-26T18:23:22.098Z,8.35
2023-02-26T18:25:23.687Z,7.32
2023-02-26T18:27:26.449Z,8.75
2023-02-26T18:29:28.020Z,7.35
2023-02-26T18:31:34.752Z,11.85
2023-02-26T18:33:38.711Z,11.77
2023-02-26T18:35:45.911Z,11.43
2023-02-26T18:37:47.532Z,11.07
2023-02-26T18:39:49.699Z,13.18
2023-02-26T18:41:51.275Z,19.70
2023-02-26T18:43:52.902Z,18.65
2023-02-26T18:45:55.698Z,19.27
2023-02-26T18:47:57.365Z,19.20
2023-02-26T18:49:59.020Z,20.13
2023-02-26T18:52:00.767Z,20.30
2023-02-26T18:54:02.419Z,19.05
2023-02-26T18:56:04.257Z,21.27
2023-02-26T18:58:05.902Z,20.08
2023-02-26T19:00:09.246Z,16.35
2023-02-26T19:02:13.785Z,15.45
2023-02-26T19:04:15.480Z,13.27
2023-02-26T19:06:17.812Z,15.13
2023-02-26T19:08:19.373Z,12.68
2023-02-26T19:10:21.376Z,13.30
2023-02-26T19:12:24.423Z,13.02
2023-02-26T19:14:26.286Z,12.55
2023-02-26T19:16:30.743Z,15.10
2023-02-26T19:18:32.397Z,15.82
2023-02-26T19:20:34.073Z,14.38
2023-02-26T19:22:35.778Z,14.52
2023-02-26T19:24:37.434Z,14.60
2023-02-26T19:26:39.636Z,15.10
2023-02-26T19:28:42.538Z,13.52
2023-02-26T19:30:44.174Z,13.83
2023-02-26T19:32:45.831Z,14.05
2023-02-26T19:34:47.534Z,9.48
2023-02-26T19:36:49.422Z,12.23
2023-02-26T19:38:51.308Z,12.80
2023-02-26T19:40:53.017Z,14.98
2023-02-26T19:42:54.600Z,15.35
2023-02-26T19:44:56.244Z,15.35
2023-02-26T19:46:58.476Z,14.00
2023-02-26T19:49:00.077Z,18.73
2023-02-26T19:51:03.148Z,15.18
2023-02-26T19:53:05.005Z,13.48
2023-02-26T19:55:08.258Z,14.63
2023-02-26T19:57:09.996Z,14.63
2023-02-26T19:59:12.525Z,15.65
2023-02-26T20:01:14.148Z,14.02
2023-02-26T20:03:15.758Z,14.13
2023-02-26T20:05:18.263Z,12.38
2023-02-26T20:07:19.932Z,13.60
2023-02-26T20:09:23.017Z,12.35
2023-02-26T20:11:25.049Z,13.32
2023-02-26T20:13:30.695Z,12.85
2023-02-26T20:15:32.337Z,12.98
2023-02-26T20:17:34.223Z,8.30
2023-02-26T20:19:35.858Z,9.18
2023-02-26T20:21:37.487Z,9.90
2023-02-26T20:23:39.649Z,11.40
2023-02-26T20:25:43.333Z,9.48
2023-02-26T20:27:45.178Z,10.35
2023-02-26T20:29:47.210Z,10.35
2023-02-26T20:31:50.106Z,10.90
2023-02-26T20:33:52.870Z,10.35
2023-02-26T20:35:55.004Z,10.63
2023-02-26T20:37:56.598Z,10.60
2023-02-26T20:39:58.238Z,9.93
2023-02-26T20:42:00.048Z,11.02
2023-02-26T20:44:01.703Z,9.30
2023-02-26T20:46:03.489Z,10.43
2023-02-26T20:48:06.109Z,9.68
2023-02-26T20:50:09.724Z,9.75
2023-02-26T20:52:11.314Z,10.23
2023-02-26T20:54:14.771Z,10.25
2023-02-26T20:56:17.822Z,9.38
2023-02-26T20:58:19.440Z,9.40
2023-02-26T21:00:21.727Z,8.93
2023-02-26T21:02:23.334Z,10.02
2023-02-26T21:04:24.948Z,9.65
2023-02-26T21:06:26.525Z,9.50
2023-02-26T21:08:28.174Z,9.95
2023-02-26T21:10:29.939Z,8.38
2023-02-26T21:12:31.608Z,9.40
2023-02-26T21:14:33.373Z,9.48
2023-02-26T21:16:35.758Z,10.00
2023-02-26T21:18:37.507Z,9.45
2023-02-26T21:20:39.420Z,9.18
2023-02-26T21:22:41.050Z,8.93
2023-02-26T21:24:43.130Z,8.95
2023-02-26T21:26:44.793Z,9.35
2023-02-26T21:28:48.390Z,11.00
2023-02-26T21:30:53.439Z,10.52
2023-02-26T21:32:55.209Z,11.45
2023-02-26T21:34:58.846Z,10.60
2023-02-26T21:37:05.247Z,10.68
2023-02-26T21:39:06.941Z,10.90
2023-02-26T21:41:08.595Z,9.63
2023-02-26T21:43:10.758Z,9.32
2023-02-26T21:45:12.960Z,9.05
2023-02-26T21:47:14.581Z,9.27
2023-02-26T21:49:16.241Z,9.02
2023-02-26T21:51:17.857Z,8.85
2023-02-26T21:53:19.427Z,8.73
2023-02-26T21:55:21.109Z,8.75
2023-02-26T21:57:24.556Z,9.05
2023-02-26T21:59:26.280Z,9.00
2023-02-26T22:01:28.179Z,9.85
2023-02-26T22:03:30.169Z,9.30
2023-02-26T22:05:31.776Z,8.65
2023-02-26T22:07:33.393Z,8.98
2023-02-26T22:09:35.465Z,9.48
2023-02-26T22:11:37.055Z,9.30
2023-02-26T22:13:38.658Z,9.65
2023-02-26T22:15:40.476Z,9.15
2023-02-26T22:17:42.066Z,8.95
2023-02-26T22:19:43.639Z,8.55
2023-02-26T22:21:45.291Z,9.05
2023-02-26T22:23:46.898Z,9.00
2023-02-26T22:25:48.604Z,7.65
2023-02-26T22:27:50.834Z,8.20
2023-02-26T22:29:52.460Z,10.43
2023-02-26T22:31:54.512Z,8.35
2023-02-26T22:33:57.401Z,8.55
2023-02-26T22:36:00.055Z,8.50
2023-02-26T22:38:01.666Z,9.27
2023-02-26T22:40:04.035Z,8.75
2023-02-26T22:42:05.639Z,9.05
2023-02-26T22:44:07.233Z,9.40
2023-02-26T22:46:08.899Z,9.13
2023-02-26T22:48:10.696Z,9.45
2023-02-26T22:50:13.329Z,9.38
2023-02-26T22:52:15.200Z,9.68
2023-02-26T22:54:16.833Z,8.60
2023-02-26T22:56:18.533Z,8.70
2023-02-26T22:58:20.121Z,7.97
2023-02-26T23:00:21.726Z,8.32
2023-02-26T23:02:24.052Z,8.88
2023-02-26T23:04:25.813Z,8.95
2023-02-26T23:06:27.452Z,8.93
2023-02-26T23:08:29.060Z,8.45
2023-02-26T23:10:30.698Z,8.52
2023-02-26T23:12:32.477Z,7.40
2023-02-26T23:14:34.489Z,8.27
2023-02-26T23:16:36.075Z,8.20
2023-02-26T23:18:39.375Z,8.55
2023-02-26T23:20:41.047Z,8.82
2023-02-26T23:22:43.864Z,9.18
2023-02-26T23:24:46.593Z,9.13
2023-02-26T23:26:48.364Z,8.43
2023-02-26T23:31:09.168Z,9.13
2023-02-26T23:33:10.917Z,9.50
2023-02-26T23:35:12.525Z,8.75
2023-02-26T23:37:14.150Z,8.18
2023-02-26T23:39:15.863Z,8.52
2023-02-26T23:41:17.485Z,8.57
2023-02-26T23:43:19.150Z,8.55
2023-02-26T23:45:20.793Z,8.27
2023-02-26T23:47:22.487Z,8.27
2023-02-26T23:49:24.187Z,8.85
2023-02-26T23:51:26.145Z,7.85
2023-02-26T23:53:27.984Z,8.48
2023-02-26T23:55:29.531Z,8.52
2023-02-26T23:57:31.268Z,7.75
2023-02-26T23:59:33.102Z,7.57
